sensor_id;sensor_type;location;lat;lon;timestamp;P1;durP1;ratioP1;P2;durP2;ratioP2
22113;SDS011;11223;49.968;9.062;2023-04-24T00:01:40;2.27;;;2.07;;
22113;SDS011;11223;49.968;9.062;2023-04-24T00:04:07;1.85;;;1.65;;
22113;SDS011;11223;49.968;9.062;2023-04-24T00:06:35;2.55;;;1.95;;
22113;SDS011;11223;49.968;9.062;2023-04-24T00:09:02;2.47;;;1.85;;
22113;SDS011;11223;49.968;9.062;2023-04-24T00:11:28;1.40;;;1.23;;
22113;SDS011;11223;49.968;9.062;2023-04-24T00:13:54;1.55;;;1.30;;
22113;SDS011;11223;49.968;9.062;2023-04-24T00:16:20;1.42;;;1.33;;
22113;SDS011;11223;49.968;9.062;2023-04-24T00:18:46;2.67;;;1.47;;
22113;SDS011;11223;49.968;9.062;2023-04-24T00:21:12;1.90;;;1.70;;
22113;SDS011;11223;49.968;9.062;2023-04-24T00:23:38;1.50;;;1.15;;
22113;SDS011;11223;49.968;9.062;2023-04-24T00:26:04;1.50;;;1.37;;
22113;SDS011;11223;49.968;9.062;2023-04-24T00:28:29;3.70;;;1.57;;
22113;SDS011;11223;49.968;9.062;2023-04-24T00:30:55;2.40;;;1.40;;
22113;SDS011;11223;49.968;9.062;2023-04-24T00:33:21;4.03;;;1.60;;
22113;SDS011;11223;49.968;9.062;2023-04-24T00:35:46;1.87;;;1.70;;
22113;SDS011;11223;49.968;9.062;2023-04-24T00:38:12;1.47;;;1.37;;
22113;SDS011;11223;49.968;9.062;2023-04-24T00:40:37;1.80;;;1.57;;
22113;SDS011;11223;49.968;9.062;2023-04-24T00:43:03;2.10;;;1.40;;
22113;SDS011;11223;49.968;9.062;2023-04-24T00:45:28;1.87;;;1.47;;
22113;SDS011;11223;49.968;9.062;2023-04-24T00:47:56;1.98;;;1.77;;
22113;SDS011;11223;49.968;9.062;2023-04-24T00:50:21;1.53;;;1.33;;
22113;SDS011;11223;49.968;9.062;2023-04-24T00:52:49;2.13;;;1.27;;
22113;SDS011;11223;49.968;9.062;2023-04-24T00:55:15;1.58;;;1.38;;
22113;SDS011;11223;49.968;9.062;2023-04-24T00:57:41;1.70;;;1.60;;
22113;SDS011;11223;49.968;9.062;2023-04-24T01:00:08;1.30;;;1.00;;
22113;SDS011;11223;49.968;9.062;2023-04-24T01:02:37;1.50;;;1.40;;
22113;SDS011;11223;49.968;9.062;2023-04-24T01:05:12;1.58;;;1.33;;
22113;SDS011;11223;49.968;9.062;2023-04-24T01:07:39;3.20;;;2.10;;
22113;SDS011;11223;49.968;9.062;2023-04-24T01:10:05;1.08;;;0.90;;
22113;SDS011;11223;49.968;9.062;2023-04-24T01:12:32;1.23;;;1.10;;
22113;SDS011;11223;49.968;9.062;2023-04-24T01:14:58;1.70;;;1.60;;
22113;SDS011;11223;49.968;9.062;2023-04-24T01:17:24;1.30;;;1.20;;
22113;SDS011;11223;49.968;9.062;2023-04-24T01:19:50;1.10;;;0.90;;
22113;SDS011;11223;49.968;9.062;2023-04-24T01:22:18;1.23;;;1.02;;
22113;SDS011;11223;49.968;9.062;2023-04-24T01:24:45;2.13;;;1.20;;
22113;SDS011;11223;49.968;9.062;2023-04-24T01:27:11;2.40;;;1.30;;
22113;SDS011;11223;49.968;9.062;2023-04-24T01:29:37;1.20;;;1.10;;
22113;SDS011;11223;49.968;9.062;2023-04-24T01:32:03;1.80;;;1.53;;
22113;SDS011;11223;49.968;9.062;2023-04-24T01:34:29;1.25;;;1.15;;
22113;SDS011;11223;49.968;9.062;2023-04-24T01:36:55;1.73;;;1.30;;
22113;SDS011;11223;49.968;9.062;2023-04-24T01:39:21;3.13;;;1.10;;
22113;SDS011;11223;49.968;9.062;2023-04-24T01:41:51;5.00;;;1.00;;
22113;SDS011;11223;49.968;9.062;2023-04-24T01:44:17;1.95;;;1.02;;
22113;SDS011;11223;49.968;9.062;2023-04-24T01:46:43;1.50;;;1.40;;
22113;SDS011;11223;49.968;9.062;2023-04-24T01:49:08;2.30;;;1.13;;
22113;SDS011;11223;49.968;9.062;2023-04-24T01:51:34;1.50;;;1.10;;
22113;SDS011;11223;49.968;9.062;2023-04-24T01:54:00;1.53;;;1.43;;
22113;SDS011;11223;49.968;9.062;2023-04-24T01:56:25;1.60;;;1.40;;
22113;SDS011;11223;49.968;9.062;2023-04-24T01:58:54;1.20;;;1.10;;
22113;SDS011;11223;49.968;9.062;2023-04-24T02:01:21;1.33;;;0.95;;
22113;SDS011;11223;49.968;9.062;2023-04-24T02:03:48;1.67;;;1.10;;
22113;SDS011;11223;49.968;9.062;2023-04-24T02:06:13;1.07;;;0.97;;
22113;SDS011;11223;49.968;9.062;2023-04-24T02:08:39;1.70;;;1.60;;
22113;SDS011;11223;49.968;9.062;2023-04-24T02:11:05;1.37;;;1.27;;
22113;SDS011;11223;49.968;9.062;2023-04-24T02:13:30;1.10;;;1.00;;
22113;SDS011;11223;49.968;9.062;2023-04-24T02:15:57;1.47;;;1.10;;
22113;SDS011;11223;49.968;9.062;2023-04-24T02:18:23;5.15;;;0.80;;
22113;SDS011;11223;49.968;9.062;2023-04-24T02:20:49;2.07;;;1.37;;
22113;SDS011;11223;49.968;9.062;2023-04-24T02:23:15;1.37;;;1.00;;
22113;SDS011;11223;49.968;9.062;2023-04-24T02:25:40;0.97;;;0.90;;
22113;SDS011;11223;49.968;9.062;2023-04-24T02:28:06;1.33;;;0.90;;
22113;SDS011;11223;49.968;9.062;2023-04-24T02:30:31;1.40;;;1.00;;
22113;SDS011;11223;49.968;9.062;2023-04-24T02:32:57;1.43;;;1.33;;
22113;SDS011;11223;49.968;9.062;2023-04-24T02:35:22;1.37;;;1.20;;
22113;SDS011;11223;49.968;9.062;2023-04-24T02:37:48;1.60;;;1.20;;
22113;SDS011;11223;49.968;9.062;2023-04-24T02:40:13;4.00;;;1.20;;
22113;SDS011;11223;49.968;9.062;2023-04-24T02:42:39;0.97;;;0.83;;
22113;SDS011;11223;49.968;9.062;2023-04-24T02:45:05;2.07;;;1.30;;
22113;SDS011;11223;49.968;9.062;2023-04-24T02:47:31;1.55;;;1.10;;
22113;SDS011;11223;49.968;9.062;2023-04-24T02:49:56;1.10;;;1.00;;
22113;SDS011;11223;49.968;9.062;2023-04-24T02:52:22;1.20;;;1.10;;
22113;SDS011;11223;49.968;9.062;2023-04-24T02:54:47;3.00;;;1.37;;
22113;SDS011;11223;49.968;9.062;2023-04-24T02:57:13;1.53;;;1.27;;
22113;SDS011;11223;49.968;9.062;2023-04-24T02:59:38;10.37;;;1.67;;
22113;SDS011;11223;49.968;9.062;2023-04-24T03:02:04;1.67;;;1.30;;
22113;SDS011;11223;49.968;9.062;2023-04-24T03:04:30;3.15;;;1.58;;
22113;SDS011;11223;49.968;9.062;2023-04-24T03:06:56;1.17;;;1.05;;
22113;SDS011;11223;49.968;9.062;2023-04-24T03:09:22;2.30;;;1.40;;
22113;SDS011;11223;49.968;9.062;2023-04-24T03:11:48;2.57;;;1.40;;
22113;SDS011;11223;49.968;9.062;2023-04-24T03:14:14;1.73;;;1.10;;
22113;SDS011;11223;49.968;9.062;2023-04-24T03:16:41;1.35;;;1.10;;
22113;SDS011;11223;49.968;9.062;2023-04-24T03:19:06;1.53;;;1.30;;
22113;SDS011;11223;49.968;9.062;2023-04-24T03:21:32;0.70;;;0.70;;
22113;SDS011;11223;49.968;9.062;2023-04-24T03:23:58;2.53;;;1.40;;
22113;SDS011;11223;49.968;9.062;2023-04-24T03:26:23;1.00;;;0.90;;
22113;SDS011;11223;49.968;9.062;2023-04-24T03:28:49;1.60;;;1.00;;
22113;SDS011;11223;49.968;9.062;2023-04-24T03:31:15;1.67;;;1.23;;
22113;SDS011;11223;49.968;9.062;2023-04-24T03:33:41;1.20;;;0.95;;
22113;SDS011;11223;49.968;9.062;2023-04-24T03:36:07;3.17;;;1.10;;
22113;SDS011;11223;49.968;9.062;2023-04-24T03:38:32;3.30;;;1.40;;
22113;SDS011;11223;49.968;9.062;2023-04-24T03:40:58;1.37;;;1.00;;
22113;SDS011;11223;49.968;9.062;2023-04-24T03:43:23;1.53;;;1.00;;
22113;SDS011;11223;49.968;9.062;2023-04-24T03:45:49;1.53;;;1.17;;
22113;SDS011;11223;49.968;9.062;2023-04-24T03:48:14;1.83;;;1.27;;
22113;SDS011;11223;49.968;9.062;2023-04-24T03:50:40;1.57;;;1.30;;
22113;SDS011;11223;49.968;9.062;2023-04-24T03:53:05;1.97;;;0.83;;
22113;SDS011;11223;49.968;9.062;2023-04-24T03:55:31;1.17;;;0.90;;
22113;SDS011;11223;49.968;9.062;2023-04-24T03:57:56;1.77;;;0.97;;
22113;SDS011;11223;49.968;9.062;2023-04-24T04:00:22;1.50;;;1.20;;
22113;SDS011;11223;49.968;9.062;2023-04-24T04:02:48;1.50;;;1.30;;
22113;SDS011;11223;49.968;9.062;2023-04-24T04:05:13;1.13;;;0.90;;
22113;SDS011;11223;49.968;9.062;2023-04-24T04:07:39;1.40;;;1.30;;
22113;SDS011;11223;49.968;9.062;2023-04-24T04:10:04;2.03;;;1.23;;
22113;SDS011;11223;49.968;9.062;2023-04-24T04:12:32;1.50;;;1.27;;
22113;SDS011;11223;49.968;9.062;2023-04-24T04:14:57;1.43;;;1.23;;
22113;SDS011;11223;49.968;9.062;2023-04-24T04:17:23;1.60;;;1.13;;
22113;SDS011;11223;49.968;9.062;2023-04-24T04:19:48;1.10;;;1.00;;
22113;SDS011;11223;49.968;9.062;2023-04-24T04:22:14;2.60;;;1.20;;
22113;SDS011;11223;49.968;9.062;2023-04-24T04:24:40;1.93;;;1.30;;
22113;SDS011;11223;49.968;9.062;2023-04-24T04:27:06;1.50;;;1.30;;
22113;SDS011;11223;49.968;9.062;2023-04-24T04:29:33;1.10;;;1.00;;
22113;SDS011;11223;49.968;9.062;2023-04-24T04:32:00;2.45;;;1.42;;
22113;SDS011;11223;49.968;9.062;2023-04-24T04:34:27;1.52;;;1.42;;
22113;SDS011;11223;49.968;9.062;2023-04-24T04:36:52;2.40;;;1.30;;
22113;SDS011;11223;49.968;9.062;2023-04-24T04:39:18;1.10;;;1.00;;
22113;SDS011;11223;49.968;9.062;2023-04-24T04:41:44;1.58;;;1.40;;
22113;SDS011;11223;49.968;9.062;2023-04-24T04:44:13;1.95;;;1.35;;
22113;SDS011;11223;49.968;9.062;2023-04-24T04:46:39;1.40;;;1.30;;
22113;SDS011;11223;49.968;9.062;2023-04-24T04:49:06;1.38;;;1.08;;
22113;SDS011;11223;49.968;9.062;2023-04-24T04:51:33;1.40;;;1.30;;
22113;SDS011;11223;49.968;9.062;2023-04-24T04:53:59;1.77;;;1.27;;
22113;SDS011;11223;49.968;9.062;2023-04-24T04:56:25;0.83;;;0.83;;
22113;SDS011;11223;49.968;9.062;2023-04-24T04:58:51;1.35;;;1.05;;
22113;SDS011;11223;49.968;9.062;2023-04-24T05:01:16;2.70;;;1.77;;
22113;SDS011;11223;49.968;9.062;2023-04-24T05:03:42;3.30;;;1.27;;
22113;SDS011;11223;49.968;9.062;2023-04-24T05:06:08;1.80;;;1.70;;
22113;SDS011;11223;49.968;9.062;2023-04-24T05:08:33;2.03;;;1.93;;
22113;SDS011;11223;49.968;9.062;2023-04-24T05:10:59;2.77;;;1.40;;
22113;SDS011;11223;49.968;9.062;2023-04-24T05:13:25;1.80;;;1.70;;
22113;SDS011;11223;49.968;9.062;2023-04-24T05:15:50;5.67;;;1.90;;
22113;SDS011;11223;49.968;9.062;2023-04-24T05:18:16;3.57;;;2.70;;
22113;SDS011;11223;49.968;9.062;2023-04-24T05:20:41;1.87;;;1.47;;
22113;SDS011;11223;49.968;9.062;2023-04-24T05:23:08;1.70;;;1.60;;
22113;SDS011;11223;49.968;9.062;2023-04-24T05:25:34;1.63;;;1.52;;
22113;SDS011;11223;49.968;9.062;2023-04-24T05:28:01;1.87;;;1.77;;
22113;SDS011;11223;49.968;9.062;2023-04-24T05:30:27;2.03;;;1.90;;
22113;SDS011;11223;49.968;9.062;2023-04-24T05:32:52;1.80;;;1.70;;
22113;SDS011;11223;49.968;9.062;2023-04-24T05:35:18;1.60;;;1.50;;
22113;SDS011;11223;49.968;9.062;2023-04-24T05:37:44;1.93;;;1.83;;
22113;SDS011;11223;49.968;9.062;2023-04-24T05:40:10;3.03;;;1.93;;
22113;SDS011;11223;49.968;9.062;2023-04-24T05:42:36;1.90;;;1.80;;
22113;SDS011;11223;49.968;9.062;2023-04-24T05:45:01;2.60;;;2.40;;
22113;SDS011;11223;49.968;9.062;2023-04-24T05:47:27;2.10;;;1.90;;
22113;SDS011;11223;49.968;9.062;2023-04-24T05:49:53;1.77;;;1.67;;
22113;SDS011;11223;49.968;9.062;2023-04-24T05:52:19;1.97;;;1.87;;
22113;SDS011;11223;49.968;9.062;2023-04-24T05:54:45;2.50;;;1.50;;
22113;SDS011;11223;49.968;9.062;2023-04-24T05:57:10;2.23;;;2.13;;
22113;SDS011;11223;49.968;9.062;2023-04-24T05:59:36;2.20;;;2.00;;
22113;SDS011;11223;49.968;9.062;2023-04-24T06:02:06;1.80;;;1.70;;
22113;SDS011;11223;49.968;9.062;2023-04-24T06:04:32;2.25;;;2.08;;
22113;SDS011;11223;49.968;9.062;2023-04-24T06:06:58;1.90;;;1.80;;
22113;SDS011;11223;49.968;9.062;2023-04-24T06:09:24;1.83;;;1.73;;
22113;SDS011;11223;49.968;9.062;2023-04-24T06:11:50;1.98;;;1.88;;
22113;SDS011;11223;49.968;9.062;2023-04-24T06:14:19;2.22;;;1.63;;
22113;SDS011;11223;49.968;9.062;2023-04-24T06:16:45;2.57;;;2.37;;
22113;SDS011;11223;49.968;9.062;2023-04-24T06:19:11;2.30;;;2.10;;
22113;SDS011;11223;49.968;9.062;2023-04-24T06:21:36;2.10;;;1.90;;
22113;SDS011;11223;49.968;9.062;2023-04-24T06:24:02;2.83;;;1.90;;
22113;SDS011;11223;49.968;9.062;2023-04-24T06:26:29;1.77;;;1.67;;
22113;SDS011;11223;49.968;9.062;2023-04-24T06:28:55;1.77;;;1.50;;
22113;SDS011;11223;49.968;9.062;2023-04-24T06:31:20;2.00;;;1.90;;
22113;SDS011;11223;49.968;9.062;2023-04-24T06:33:47;2.30;;;2.10;;
22113;SDS011;11223;49.968;9.062;2023-04-24T06:36:13;2.20;;;2.00;;
22113;SDS011;11223;49.968;9.062;2023-04-24T06:38:39;1.67;;;1.57;;
22113;SDS011;11223;49.968;9.062;2023-04-24T06:41:05;2.10;;;1.90;;
22113;SDS011;11223;49.968;9.062;2023-04-24T06:43:31;2.27;;;1.90;;
22113;SDS011;11223;49.968;9.062;2023-04-24T06:45:59;2.40;;;2.20;;
22113;SDS011;11223;49.968;9.062;2023-04-24T06:48:25;2.20;;;2.00;;
22113;SDS011;11223;49.968;9.062;2023-04-24T06:50:51;2.47;;;2.27;;
22113;SDS011;11223;49.968;9.062;2023-04-24T06:53:17;1.75;;;1.65;;
22113;SDS011;11223;49.968;9.062;2023-04-24T06:55:43;2.17;;;1.60;;
22113;SDS011;11223;49.968;9.062;2023-04-24T06:58:10;2.60;;;1.75;;
22113;SDS011;11223;49.968;9.062;2023-04-24T07:00:36;2.58;;;2.33;;
22113;SDS011;11223;49.968;9.062;2023-04-24T07:03:01;2.03;;;1.93;;
22113;SDS011;11223;49.968;9.062;2023-04-24T07:05:27;1.80;;;1.70;;
22113;SDS011;11223;49.968;9.062;2023-04-24T07:07:53;2.27;;;2.07;;
22113;SDS011;11223;49.968;9.062;2023-04-24T07:10:18;2.17;;;1.97;;
22113;SDS011;11223;49.968;9.062;2023-04-24T07:12:45;2.38;;;2.17;;
22113;SDS011;11223;49.968;9.062;2023-04-24T07:15:11;2.50;;;2.03;;
22113;SDS011;11223;49.968;9.062;2023-04-24T07:17:37;3.42;;;2.33;;
22113;SDS011;11223;49.968;9.062;2023-04-24T07:20:03;3.15;;;2.28;;
22113;SDS011;11223;49.968;9.062;2023-04-24T07:22:30;2.17;;;2.08;;
22113;SDS011;11223;49.968;9.062;2023-04-24T07:24:56;2.03;;;1.93;;
22113;SDS011;11223;49.968;9.062;2023-04-24T07:27:21;2.40;;;2.20;;
22113;SDS011;11223;49.968;9.062;2023-04-24T07:29:47;2.03;;;1.93;;
22113;SDS011;11223;49.968;9.062;2023-04-24T07:32:13;3.30;;;3.00;;
22113;SDS011;11223;49.968;9.062;2023-04-24T07:34:39;3.87;;;2.30;;
22113;SDS011;11223;49.968;9.062;2023-04-24T07:37:05;2.43;;;1.93;;
22113;SDS011;11223;49.968;9.062;2023-04-24T07:39:30;2.70;;;2.50;;
22113;SDS011;11223;49.968;9.062;2023-04-24T07:41:56;2.23;;;1.97;;
22113;SDS011;11223;49.968;9.062;2023-04-24T07:44:24;2.40;;;2.22;;
22113;SDS011;11223;49.968;9.062;2023-04-24T07:46:49;4.07;;;3.47;;
22113;SDS011;11223;49.968;9.062;2023-04-24T07:49:15;2.30;;;2.20;;
22113;SDS011;11223;49.968;9.062;2023-04-24T07:51:41;2.20;;;2.00;;
22113;SDS011;11223;49.968;9.062;2023-04-24T07:54:06;2.60;;;2.13;;
22113;SDS011;11223;49.968;9.062;2023-04-24T07:56:32;2.40;;;2.20;;
22113;SDS011;11223;49.968;9.062;2023-04-24T07:58:58;2.45;;;2.25;;
22113;SDS011;11223;49.968;9.062;2023-04-24T08:01:24;2.63;;;2.30;;
22113;SDS011;11223;49.968;9.062;2023-04-24T08:03:50;2.73;;;2.30;;
22113;SDS011;11223;49.968;9.062;2023-04-24T08:06:16;2.40;;;2.28;;
22113;SDS011;11223;49.968;9.062;2023-04-24T08:08:41;2.20;;;2.00;;
22113;SDS011;11223;49.968;9.062;2023-04-24T08:11:07;3.60;;;2.00;;
22113;SDS011;11223;49.968;9.062;2023-04-24T08:13:33;2.63;;;2.40;;
22113;SDS011;11223;49.968;9.062;2023-04-24T08:15:58;2.70;;;2.50;;
22113;SDS011;11223;49.968;9.062;2023-04-24T08:18:24;2.10;;;2.00;;
22113;SDS011;11223;49.968;9.062;2023-04-24T08:20:50;3.17;;;2.93;;
22113;SDS011;11223;49.968;9.062;2023-04-24T08:23:15;2.00;;;1.90;;
22113;SDS011;11223;49.968;9.062;2023-04-24T08:25:41;6.73;;;2.73;;
22113;SDS011;11223;49.968;9.062;2023-04-24T08:28:06;2.60;;;2.23;;
22113;SDS011;11223;49.968;9.062;2023-04-24T08:30:34;2.50;;;2.30;;
22113;SDS011;11223;49.968;9.062;2023-04-24T08:32:59;3.10;;;1.97;;
22113;SDS011;11223;49.968;9.062;2023-04-24T08:35:25;2.40;;;2.20;;
22113;SDS011;11223;49.968;9.062;2023-04-24T08:37:51;1.67;;;1.57;;
22113;SDS011;11223;49.968;9.062;2023-04-24T08:40:18;2.10;;;1.95;;
22113;SDS011;11223;49.968;9.062;2023-04-24T08:42:47;2.15;;;2.05;;
22113;SDS011;11223;49.968;9.062;2023-04-24T08:45:15;3.67;;;2.10;;
22113;SDS011;11223;49.968;9.062;2023-04-24T08:47:41;2.23;;;2.03;;
22113;SDS011;11223;49.968;9.062;2023-04-24T08:50:07;2.20;;;2.00;;
22113;SDS011;11223;49.968;9.062;2023-04-24T08:52:34;1.73;;;1.60;;
22113;SDS011;11223;49.968;9.062;2023-04-24T08:55:01;2.00;;;1.80;;
22113;SDS011;11223;49.968;9.062;2023-04-24T08:57:27;2.00;;;1.90;;
22113;SDS011;11223;49.968;9.062;2023-04-24T08:59:54;4.60;;;2.20;;
22113;SDS011;11223;49.968;9.062;2023-04-24T09:02:20;1.98;;;1.88;;
22113;SDS011;11223;49.968;9.062;2023-04-24T09:04:46;1.65;;;1.55;;
22113;SDS011;11223;49.968;9.062;2023-04-24T09:07:12;2.47;;;2.13;;
22113;SDS011;11223;49.968;9.062;2023-04-24T09:09:39;1.85;;;1.75;;
22113;SDS011;11223;49.968;9.062;2023-04-24T09:12:06;3.50;;;1.88;;
22113;SDS011;11223;49.968;9.062;2023-04-24T09:14:34;2.13;;;2.03;;
22113;SDS011;11223;49.968;9.062;2023-04-24T09:17:01;2.63;;;1.83;;
22113;SDS011;11223;49.968;9.062;2023-04-24T09:19:27;4.73;;;1.83;;
22113;SDS011;11223;49.968;9.062;2023-04-24T09:21:52;2.13;;;1.93;;
22113;SDS011;11223;49.968;9.062;2023-04-24T09:24:20;2.25;;;1.85;;
22113;SDS011;11223;49.968;9.062;2023-04-24T09:26:47;4.53;;;2.00;;
22113;SDS011;11223;49.968;9.062;2023-04-24T09:29:15;1.63;;;1.52;;
22113;SDS011;11223;49.968;9.062;2023-04-24T09:31:41;1.75;;;1.63;;
22113;SDS011;11223;49.968;9.062;2023-04-24T09:34:08;2.05;;;1.95;;
22113;SDS011;11223;49.968;9.062;2023-04-24T09:39:07;2.33;;;2.05;;
22113;SDS011;11223;49.968;9.062;2023-04-24T09:41:51;1.88;;;1.77;;
22113;SDS011;11223;49.968;9.062;2023-04-24T09:44:18;4.40;;;3.00;;
22113;SDS011;11223;49.968;9.062;2023-04-24T09:46:53;3.30;;;2.33;;
22113;SDS011;11223;49.968;9.062;2023-04-24T09:49:24;1.90;;;1.80;;
22113;SDS011;11223;49.968;9.062;2023-04-24T09:51:51;3.35;;;1.67;;
22113;SDS011;11223;49.968;9.062;2023-04-24T09:54:21;2.20;;;2.00;;
22113;SDS011;11223;49.968;9.062;2023-04-24T09:56:48;2.10;;;1.90;;
22113;SDS011;11223;49.968;9.062;2023-04-24T09:59:15;1.90;;;1.80;;
22113;SDS011;11223;49.968;9.062;2023-04-24T10:01:42;2.83;;;1.90;;
22113;SDS011;11223;49.968;9.062;2023-04-24T10:04:19;2.65;;;2.22;;
22113;SDS011;11223;49.968;9.062;2023-04-24T10:06:46;2.05;;;1.95;;
22113;SDS011;11223;49.968;9.062;2023-04-24T10:09:14;1.80;;;1.70;;
22113;SDS011;11223;49.968;9.062;2023-04-24T10:11:44;2.40;;;2.20;;
22113;SDS011;11223;49.968;9.062;2023-04-24T10:14:15;2.15;;;2.05;;
22113;SDS011;11223;49.968;9.062;2023-04-24T10:16:43;1.83;;;1.73;;
22113;SDS011;11223;49.968;9.062;2023-04-24T10:19:11;2.40;;;2.20;;
22113;SDS011;11223;49.968;9.062;2023-04-24T10:21:38;2.42;;;2.22;;
22113;SDS011;11223;49.968;9.062;2023-04-24T10:24:07;2.15;;;1.95;;
22113;SDS011;11223;49.968;9.062;2023-04-24T10:26:34;2.00;;;1.85;;
22113;SDS011;11223;49.968;9.062;2023-04-24T10:29:00;1.48;;;1.38;;
22113;SDS011;11223;49.968;9.062;2023-04-24T10:31:26;1.98;;;1.88;;
22113;SDS011;11223;49.968;9.062;2023-04-24T10:33:55;1.90;;;1.80;;
22113;SDS011;11223;49.968;9.062;2023-04-24T10:36:23;2.60;;;2.30;;
22113;SDS011;11223;49.968;9.062;2023-04-24T10:38:51;2.20;;;2.00;;
22113;SDS011;11223;49.968;9.062;2023-04-24T10:41:19;1.80;;;1.70;;
22113;SDS011;11223;49.968;9.062;2023-04-24T10:43:48;1.98;;;1.88;;
22113;SDS011;11223;49.968;9.062;2023-04-24T10:46:29;2.08;;;1.98;;
22113;SDS011;11223;49.968;9.062;2023-04-24T10:48:55;1.85;;;1.75;;
22113;SDS011;11223;49.968;9.062;2023-04-24T10:51:21;1.95;;;1.85;;
22113;SDS011;11223;49.968;9.062;2023-04-24T10:53:49;2.10;;;2.00;;
22113;SDS011;11223;49.968;9.062;2023-04-24T10:56:16;2.10;;;2.00;;
22113;SDS011;11223;49.968;9.062;2023-04-24T10:58:42;2.40;;;2.20;;
22113;SDS011;11223;49.968;9.062;2023-04-24T11:01:22;2.55;;;1.85;;
22113;SDS011;11223;49.968;9.062;2023-04-24T11:03:54;2.15;;;1.95;;
22113;SDS011;11223;49.968;9.062;2023-04-24T11:06:34;1.77;;;1.60;;
22113;SDS011;11223;49.968;9.062;2023-04-24T11:09:08;2.33;;;2.13;;
22113;SDS011;11223;49.968;9.062;2023-04-24T11:11:36;2.30;;;2.10;;
22113;SDS011;11223;49.968;9.062;2023-04-24T11:14:05;2.00;;;1.90;;
22113;SDS011;11223;49.968;9.062;2023-04-24T11:19:09;2.00;;;1.63;;
22113;SDS011;11223;49.968;9.062;2023-04-24T11:24:26;2.28;;;1.95;;
22113;SDS011;11223;49.968;9.062;2023-04-24T11:26:56;1.75;;;1.65;;
22113;SDS011;11223;49.968;9.062;2023-04-24T11:29:23;3.17;;;1.77;;
22113;SDS011;11223;49.968;9.062;2023-04-24T11:32:23;1.95;;;1.85;;
22113;SDS011;11223;49.968;9.062;2023-04-24T11:37:29;3.13;;;2.88;;
22113;SDS011;11223;49.968;9.062;2023-04-24T11:39:58;1.98;;;1.80;;
22113;SDS011;11223;49.968;9.062;2023-04-24T11:42:24;3.10;;;2.90;;
22113;SDS011;11223;49.968;9.062;2023-04-24T11:44:53;2.67;;;2.45;;
22113;SDS011;11223;49.968;9.062;2023-04-24T11:47:26;3.25;;;2.80;;
22113;SDS011;11223;49.968;9.062;2023-04-24T11:49:55;4.10;;;3.15;;
22113;SDS011;11223;49.968;9.062;2023-04-24T11:52:23;2.45;;;2.28;;
22113;SDS011;11223;49.968;9.062;2023-04-24T11:54:49;3.20;;;3.00;;
22113;SDS011;11223;49.968;9.062;2023-04-24T11:57:15;3.10;;;2.80;;
22113;SDS011;11223;49.968;9.062;2023-04-24T11:59:43;2.13;;;1.90;;
22113;SDS011;11223;49.968;9.062;2023-04-24T12:02:09;3.10;;;2.67;;
22113;SDS011;11223;49.968;9.062;2023-04-24T12:04:45;2.05;;;1.65;;
22113;SDS011;11223;49.968;9.062;2023-04-24T12:07:11;3.00;;;1.70;;
22113;SDS011;11223;49.968;9.062;2023-04-24T12:12:12;2.20;;;2.00;;
22113;SDS011;11223;49.968;9.062;2023-04-24T12:14:43;2.22;;;1.90;;
22113;SDS011;11223;49.968;9.062;2023-04-24T12:17:09;2.90;;;2.35;;
22113;SDS011;11223;49.968;9.062;2023-04-24T12:19:35;2.70;;;2.50;;
22113;SDS011;11223;49.968;9.062;2023-04-24T12:22:04;3.30;;;3.10;;
22113;SDS011;11223;49.968;9.062;2023-04-24T12:24:30;3.38;;;2.63;;
22113;SDS011;11223;49.968;9.062;2023-04-24T12:26:57;3.23;;;2.93;;
22113;SDS011;11223;49.968;9.062;2023-04-24T12:29:23;2.78;;;2.58;;
22113;SDS011;11223;49.968;9.062;2023-04-24T12:31:50;3.10;;;2.90;;
22113;SDS011;11223;49.968;9.062;2023-04-24T12:34:19;3.45;;;2.72;;
22113;SDS011;11223;49.968;9.062;2023-04-24T12:36:46;3.22;;;2.92;;
22113;SDS011;11223;49.968;9.062;2023-04-24T12:39:18;3.20;;;2.90;;
22113;SDS011;11223;49.968;9.062;2023-04-24T12:42:25;3.10;;;2.90;;
22113;SDS011;11223;49.968;9.062;2023-04-24T12:44:36;3.13;;;2.80;;
22113;SDS011;11223;49.968;9.062;2023-04-24T12:47:02;3.23;;;3.00;;
22113;SDS011;11223;49.968;9.062;2023-04-24T12:49:31;3.20;;;2.90;;
22113;SDS011;11223;49.968;9.062;2023-04-24T12:51:57;3.50;;;3.15;;
22113;SDS011;11223;49.968;9.062;2023-04-24T12:54:22;3.57;;;3.27;;
22113;SDS011;11223;49.968;9.062;2023-04-24T12:56:48;3.20;;;2.90;;
22113;SDS011;11223;49.968;9.062;2023-04-24T12:59:13;3.00;;;2.67;;
22113;SDS011;11223;49.968;9.062;2023-04-24T13:01:39;3.43;;;2.57;;
22113;SDS011;11223;49.968;9.062;2023-04-24T13:04:05;3.07;;;2.77;;
22113;SDS011;11223;49.968;9.062;2023-04-24T13:06:30;4.40;;;2.60;;
22113;SDS011;11223;49.968;9.062;2023-04-24T13:08:56;2.40;;;2.20;;
22113;SDS011;11223;49.968;9.062;2023-04-24T13:11:22;2.90;;;2.42;;
22113;SDS011;11223;49.968;9.062;2023-04-24T13:13:49;2.95;;;1.98;;
22113;SDS011;11223;49.968;9.062;2023-04-24T13:16:14;2.57;;;2.37;;
22113;SDS011;11223;49.968;9.062;2023-04-24T13:18:40;2.87;;;2.60;;
22113;SDS011;11223;49.968;9.062;2023-04-24T13:21:05;2.83;;;2.53;;
22113;SDS011;11223;49.968;9.062;2023-04-24T13:23:31;2.83;;;2.63;;
22113;SDS011;11223;49.968;9.062;2023-04-24T13:25:56;4.30;;;2.97;;
22113;SDS011;11223;49.968;9.062;2023-04-24T13:28:24;2.67;;;2.47;;
22113;SDS011;11223;49.968;9.062;2023-04-24T13:30:50;3.30;;;3.00;;
22113;SDS011;11223;49.968;9.062;2023-04-24T13:33:16;2.40;;;2.20;;
22113;SDS011;11223;49.968;9.062;2023-04-24T13:35:41;4.20;;;2.27;;
22113;SDS011;11223;49.968;9.062;2023-04-24T13:38:07;3.17;;;2.77;;
22113;SDS011;11223;49.968;9.062;2023-04-24T13:40:33;3.08;;;2.75;;
22113;SDS011;11223;49.968;9.062;2023-04-24T13:42:58;3.33;;;3.00;;
22113;SDS011;11223;49.968;9.062;2023-04-24T13:45:24;3.03;;;2.80;;
22113;SDS011;11223;49.968;9.062;2023-04-24T13:47:49;3.17;;;2.70;;
22113;SDS011;11223;49.968;9.062;2023-04-24T13:50:15;2.90;;;2.70;;
22113;SDS011;11223;49.968;9.062;2023-04-24T13:52:41;3.20;;;2.90;;
22113;SDS011;11223;49.968;9.062;2023-04-24T13:55:06;3.20;;;2.90;;
22113;SDS011;11223;49.968;9.062;2023-04-24T13:57:32;3.50;;;2.85;;
22113;SDS011;11223;49.968;9.062;2023-04-24T13:59:58;3.30;;;3.00;;
22113;SDS011;11223;49.968;9.062;2023-04-24T14:02:28;3.05;;;2.85;;
22113;SDS011;11223;49.968;9.062;2023-04-24T14:04:54;3.70;;;3.13;;
22113;SDS011;11223;49.968;9.062;2023-04-24T14:07:20;4.67;;;3.50;;
22113;SDS011;11223;49.968;9.062;2023-04-24T14:09:45;2.67;;;2.47;;
22113;SDS011;11223;49.968;9.062;2023-04-24T14:12:11;3.60;;;3.30;;
22113;SDS011;11223;49.968;9.062;2023-04-24T14:14:37;3.70;;;3.00;;
22113;SDS011;11223;49.968;9.062;2023-04-24T14:17:03;2.90;;;2.70;;
22113;SDS011;11223;49.968;9.062;2023-04-24T14:19:28;3.93;;;2.70;;
22113;SDS011;11223;49.968;9.062;2023-04-24T14:21:54;3.10;;;2.80;;
22113;SDS011;11223;49.968;9.062;2023-04-24T14:24:21;3.47;;;3.17;;
22113;SDS011;11223;49.968;9.062;2023-04-24T14:26:47;3.07;;;2.87;;
22113;SDS011;11223;49.968;9.062;2023-04-24T14:29:12;3.43;;;3.10;;
22113;SDS011;11223;49.968;9.062;2023-04-24T14:31:38;3.67;;;3.37;;
22113;SDS011;11223;49.968;9.062;2023-04-24T14:34:03;3.20;;;2.90;;
22113;SDS011;11223;49.968;9.062;2023-04-24T14:36:29;4.23;;;3.93;;
22113;SDS011;11223;49.968;9.062;2023-04-24T14:38:56;4.50;;;2.88;;
22113;SDS011;11223;49.968;9.062;2023-04-24T14:41:21;3.73;;;3.10;;
22113;SDS011;11223;49.968;9.062;2023-04-24T14:43:47;5.77;;;2.80;;
22113;SDS011;11223;49.968;9.062;2023-04-24T14:46:12;4.03;;;3.63;;
22113;SDS011;11223;49.968;9.062;2023-04-24T14:48:38;2.77;;;2.53;;
22113;SDS011;11223;49.968;9.062;2023-04-24T14:51:04;2.53;;;2.33;;
22113;SDS011;11223;49.968;9.062;2023-04-24T14:53:30;3.28;;;2.95;;
22113;SDS011;11223;49.968;9.062;2023-04-24T14:55:55;3.20;;;2.90;;
22113;SDS011;11223;49.968;9.062;2023-04-24T14:58:21;2.63;;;2.30;;